createdAt,value
2023-11-26T00:00:59.504Z,3.15
2023-11-26T00:03:26.284Z,1.35
2023-11-26T00:05:52.953Z,1.45
2023-11-26T00:08:19.863Z,3.08
2023-11-26T00:10:46.915Z,2.28
2023-11-26T00:13:13.724Z,1.90
2023-11-26T00:15:40.459Z,1.67
2023-11-26T00:18:07.641Z,1.75
2023-11-26T00:20:34.487Z,2.58
2023-11-26T00:23:01.272Z,1.10
2023-11-26T00:25:28.093Z,1.33
2023-11-26T00:27:54.802Z,1.42
2023-11-26T00:30:21.517Z,1.40
2023-11-26T00:32:48.222Z,1.20
2023-11-26T00:35:15.241Z,2.08
2023-11-26T00:37:42.393Z,1.85
2023-11-26T00:40:10.287Z,1.38
2023-11-26T00:42:37.017Z,1.10
2023-11-26T00:45:03.962Z,1.42
2023-11-26T00:47:30.829Z,2.33
2023-11-26T00:50:02.259Z,1.20
2023-11-26T00:52:29.098Z,2.88
2023-11-26T00:54:56.330Z,1.35
2023-11-26T00:57:23.018Z,2.15
2023-11-26T00:59:49.759Z,1.27
2023-11-26T01:02:16.654Z,2.55
2023-11-26T01:04:43.539Z,0.75
2023-11-26T01:07:10.562Z,1.65
2023-11-26T01:09:37.420Z,2.47
2023-11-26T01:12:04.950Z,1.20
2023-11-26T01:14:32.202Z,1.80
2023-11-26T01:16:59.037Z,1.23
2023-11-26T01:19:25.801Z,1.10
2023-11-26T01:21:52.522Z,1.63
2023-11-26T01:24:19.207Z,3.63
2023-11-26T01:26:45.978Z,1.27
2023-11-26T01:29:12.861Z,1.63
2023-11-26T01:31:39.863Z,1.83
2023-11-26T01:34:06.869Z,1.02
2023-11-26T01:36:33.594Z,1.60
2023-11-26T01:39:00.498Z,2.03
2023-11-26T01:41:27.467Z,1.67
2023-11-26T01:43:54.234Z,2.95
2023-11-26T01:46:21.421Z,3.35
2023-11-26T01:48:48.422Z,1.65
2023-11-26T01:51:16.837Z,1.00
2023-11-26T01:53:47.426Z,1.73
2023-11-26T01:56:15.547Z,1.30
2023-11-26T01:58:42.473Z,1.35
2023-11-26T02:01:11.681Z,1.58
2023-11-26T02:03:38.598Z,1.48
2023-11-26T02:06:06.062Z,2.33
2023-11-26T02:08:33.740Z,1.42
2023-11-26T02:11:00.974Z,4.88
2023-11-26T02:13:30.266Z,1.33
2023-11-26T02:15:57.314Z,1.10
2023-11-26T02:18:26.300Z,2.67
2023-11-26T02:20:53.327Z,2.70
2023-11-26T02:23:20.083Z,2.60
2023-11-26T02:25:46.883Z,2.25
2023-11-26T02:28:13.758Z,3.55
2023-11-26T02:30:40.672Z,1.95
2023-11-26T02:33:08.247Z,1.65
2023-11-26T02:35:35.359Z,1.17
2023-11-26T02:38:03.559Z,1.38
2023-11-26T02:40:31.137Z,1.08
2023-11-26T02:43:00.428Z,2.10
2023-11-26T02:45:27.308Z,1.27
2023-11-26T02:47:54.200Z,1.15
2023-11-26T02:50:21.121Z,1.40
2023-11-26T02:52:47.847Z,1.23
2023-11-26T02:55:15.244Z,2.47
2023-11-26T02:57:41.999Z,1.17
2023-11-26T03:00:16.967Z,1.58
2023-11-26T03:02:46.045Z,1.80
2023-11-26T03:05:20.311Z,1.60
2023-11-26T03:07:48.533Z,2.15
2023-11-26T03:10:34.208Z,2.75
2023-11-26T03:13:13.751Z,1.25
2023-11-26T03:15:42.214Z,1.77
2023-11-26T03:18:11.850Z,3.42
2023-11-26T03:20:40.921Z,1.60
2023-11-26T03:23:10.573Z,1.10
2023-11-26T03:25:37.591Z,1.08
2023-11-26T03:28:07.612Z,1.20
2023-11-26T03:30:35.611Z,3.58
2023-11-26T03:33:02.850Z,1.20
2023-11-26T03:35:29.718Z,2.45
2023-11-26T03:37:56.507Z,0.95
2023-11-26T03:40:23.468Z,1.17
2023-11-26T03:42:50.502Z,2.10
2023-11-26T03:45:17.522Z,1.80
2023-11-26T03:47:44.309Z,1.98
2023-11-26T03:50:14.017Z,1.10
2023-11-26T03:52:41.654Z,1.50
2023-11-26T03:55:10.083Z,1.15
2023-11-26T03:57:38.146Z,1.75
2023-11-26T04:00:11.564Z,1.80
2023-11-26T04:02:39.465Z,1.10
2023-11-26T04:05:09.060Z,1.27
2023-11-26T04:07:35.986Z,1.23
2023-11-26T04:10:04.214Z,2.17
2023-11-26T04:12:31.143Z,4.65
2023-11-26T04:15:05.988Z,1.05
2023-11-26T04:17:33.650Z,2.55
2023-11-26T04:20:05.251Z,1.23
2023-11-26T04:22:33.309Z,0.93
2023-11-26T04:25:00.054Z,1.25
2023-11-26T04:27:27.043Z,3.15
2023-11-26T04:29:53.711Z,1.30
2023-11-26T04:32:20.544Z,1.42
2023-11-26T04:34:47.283Z,1.25
2023-11-26T04:37:14.089Z,1.00
2023-11-26T04:39:41.090Z,1.52
2023-11-26T04:42:08.480Z,1.77
2023-11-26T04:44:35.290Z,1.10
2023-11-26T04:47:02.418Z,1.35
2023-11-26T04:49:29.423Z,1.08
2023-11-26T04:51:56.128Z,0.75
2023-11-26T04:54:22.950Z,1.52
2023-11-26T04:56:52.842Z,0.82
2023-11-26T04:59:19.827Z,1.15
2023-11-26T05:01:50.084Z,2.00
2023-11-26T05:04:17.077Z,1.37
2023-11-26T05:06:44.111Z,0.93
2023-11-26T05:09:14.599Z,1.60
2023-11-26T05:11:45.999Z,1.80
2023-11-26T05:14:13.765Z,1.98
2023-11-26T05:16:40.795Z,1.90
2023-11-26T05:19:08.887Z,1.40
2023-11-26T05:21:35.618Z,1.00
2023-11-26T05:24:02.338Z,1.20
2023-11-26T05:26:29.196Z,1.27
2023-11-26T05:28:56.701Z,1.17
2023-11-26T05:31:23.774Z,1.40
2023-11-26T05:33:52.771Z,1.23
2023-11-26T05:36:20.309Z,0.60
2023-11-26T05:38:47.594Z,1.00
2023-11-26T05:41:14.557Z,1.67
2023-11-26T05:43:41.611Z,1.10
2023-11-26T05:46:08.646Z,1.52
2023-11-26T05:48:36.099Z,0.88
2023-11-26T05:51:06.087Z,1.10
2023-11-26T05:53:33.713Z,0.80
2023-11-26T05:56:00.660Z,0.75
2023-11-26T05:58:27.389Z,1.10
2023-11-26T06:00:54.913Z,0.77
2023-11-26T06:03:21.970Z,2.00
2023-11-26T06:05:48.738Z,1.80
2023-11-26T06:08:15.484Z,1.77
2023-11-26T06:10:42.196Z,0.85
2023-11-26T06:13:08.897Z,1.80
2023-11-26T06:15:35.667Z,0.88
2023-11-26T06:18:02.393Z,1.33
2023-11-26T06:20:29.206Z,1.27
2023-11-26T06:22:55.906Z,1.85
2023-11-26T06:25:22.584Z,1.73
2023-11-26T06:27:49.411Z,1.67
2023-11-26T06:30:16.331Z,2.00
2023-11-26T06:32:43.344Z,0.85
2023-11-26T06:35:10.346Z,2.25
2023-11-26T06:37:37.371Z,1.38
2023-11-26T06:40:06.947Z,6.95
2023-11-26T06:42:34.466Z,2.95
2023-11-26T06:45:01.283Z,3.50
2023-11-26T06:47:31.319Z,3.78
2023-11-26T06:49:58.645Z,5.97
2023-11-26T06:52:25.661Z,1.95
2023-11-26T06:54:52.353Z,2.47
2023-11-26T06:57:19.189Z,5.05
2023-11-26T06:59:46.097Z,1.70
2023-11-26T07:02:16.094Z,1.48
2023-11-26T07:04:43.201Z,1.67
2023-11-26T07:07:10.008Z,4.55
2023-11-26T07:09:36.747Z,1.73
2023-11-26T07:12:03.819Z,5.90
2023-11-26T07:14:30.514Z,2.08
2023-11-26T07:16:57.263Z,6.80
2023-11-26T07:19:24.180Z,18.95
2023-11-26T07:21:50.874Z,25.30
2023-11-26T07:24:17.599Z,3.95
2023-11-26T07:26:44.339Z,7.63
2023-11-26T07:29:12.294Z,9.15
2023-11-26T07:31:39.425Z,13.57
2023-11-26T07:34:06.568Z,3.20
2023-11-26T07:36:33.690Z,3.70
2023-11-26T07:39:00.874Z,6.47
2023-11-26T07:41:28.155Z,6.30
2023-11-26T07:43:56.630Z,5.53
2023-11-26T07:46:24.009Z,6.13
2023-11-26T07:48:51.131Z,4.07
2023-11-26T07:51:18.850Z,5.47
2023-11-26T07:53:45.857Z,5.43
2023-11-26T07:56:13.381Z,6.30
2023-11-26T07:58:40.132Z,4.75
2023-11-26T08:01:08.511Z,5.57
2023-11-26T08:03:36.619Z,5.53
2023-11-26T08:06:07.407Z,9.50
2023-11-26T08:08:38.078Z,5.03
2023-11-26T08:11:06.590Z,2.15
2023-11-26T08:13:36.365Z,3.63
2023-11-26T08:16:08.480Z,2.83
2023-11-26T08:18:38.238Z,2.40
2023-11-26T08:21:08.103Z,2.97
2023-11-26T08:23:41.606Z,3.20
2023-11-26T08:26:14.122Z,3.25
2023-11-26T08:28:43.202Z,2.55
2023-11-26T08:31:11.942Z,4.68
2023-11-26T08:33:44.121Z,3.72
2023-11-26T08:36:12.441Z,5.80
2023-11-26T08:38:43.220Z,3.55
2023-11-26T08:41:14.720Z,5.25
2023-11-26T08:43:44.577Z,7.22
2023-11-26T08:46:15.421Z,10.88
2023-11-26T08:48:46.856Z,6.90
2023-11-26T08:51:14.957Z,4.10
2023-11-26T08:53:41.718Z,2.85
2023-11-26T08:56:08.851Z,7.50
2023-11-26T08:58:35.650Z,4.88
2023-11-26T09:01:02.503Z,4.78
2023-11-26T09:03:29.410Z,5.30
2023-11-26T09:05:56.388Z,5.10
2023-11-26T09:08:23.104Z,3.67
2023-11-26T09:10:51.149Z,5.53
2023-11-26T09:13:17.976Z,3.28
2023-11-26T09:15:44.832Z,4.20
2023-11-26T09:18:11.794Z,4.65
2023-11-26T09:20:38.617Z,8.25
2023-11-26T09:23:05.470Z,16.27
2023-11-26T09:25:33.894Z,40.22
2023-11-26T09:28:00.727Z,63.83
2023-11-26T09:30:27.570Z,54.80
2023-11-26T09:32:55.921Z,66.47
2023-11-26T09:35:23.054Z,62.60
2023-11-26T09:37:49.913Z,42.88
2023-11-26T09:40:16.914Z,15.23
2023-11-26T09:42:55.866Z,11.57
2023-11-26T09:45:22.829Z,2.80
2023-11-26T09:47:51.183Z,3.15
2023-11-26T09:50:17.996Z,3.50
2023-11-26T09:52:48.861Z,1.58
2023-11-26T09:55:15.555Z,2.45
2023-11-26T09:57:42.301Z,2.30
2023-11-26T10:00:12.107Z,5.90
2023-11-26T10:02:39.364Z,4.82
2023-11-26T10:05:07.899Z,3.60
2023-11-26T10:07:39.690Z,4.43
2023-11-26T10:10:10.616Z,2.90
2023-11-26T10:12:53.225Z,2.60
2023-11-26T10:15:22.426Z,2.95
2023-11-26T10:18:04.987Z,4.35
2023-11-26T10:20:33.547Z,4.70
2023-11-26T10:23:00.691Z,2.78
2023-11-26T10:25:27.600Z,6.28
2023-11-26T10:27:56.711Z,3.75
2023-11-26T10:30:34.806Z,4.60
2023-11-26T10:33:07.159Z,3.08
2023-11-26T10:35:57.169Z,2.60
2023-11-26T10:38:29.126Z,3.97
2023-11-26T10:40:58.487Z,3.28
2023-11-26T10:43:26.521Z,5.93
2023-11-26T10:45:56.630Z,3.22
2023-11-26T10:48:25.632Z,7.95
2023-11-26T10:51:13.628Z,7.83
2023-11-26T10:54:27.252Z,1.80
2023-11-26T10:57:00.626Z,3.58
2023-11-26T10:59:32.801Z,3.05
2023-11-26T11:02:01.576Z,2.70
2023-11-26T11:04:30.563Z,3.85
2023-11-26T11:06:59.372Z,3.45
2023-11-26T11:09:57.174Z,5.20
2023-11-26T11:12:28.775Z,4.22
2023-11-26T11:14:57.650Z,3.60
2023-11-26T11:17:31.128Z,3.08
2023-11-26T11:19:58.278Z,3.15
2023-11-26T11:22:35.898Z,2.55
2023-11-26T11:25:20.621Z,1.63
2023-11-26T11:27:59.358Z,1.60
2023-11-26T11:30:53.026Z,3.60
2023-11-26T11:33:19.875Z,2.63
2023-11-26T11:35:50.626Z,1.33
2023-11-26T11:38:18.111Z,1.73
2023-11-26T11:41:03.876Z,1.77
2023-11-26T11:43:31.598Z,1.77
2023-11-26T11:46:00.861Z,1.95
2023-11-26T11:48:39.846Z,3.58
2023-11-26T11:51:52.095Z,1.77
2023-11-26T11:54:46.017Z,2.13
2023-11-26T11:57:17.842Z,5.65
2023-11-26T11:59:46.081Z,19.92
2023-11-26T12:02:13.777Z,44.65
2023-11-26T12:04:51.609Z,13.30
2023-11-26T12:07:20.564Z,5.32
2023-11-26T12:09:48.228Z,4.32
2023-11-26T12:12:22.087Z,1.90
2023-11-26T12:14:49.002Z,2.20
2023-11-26T12:17:17.307Z,1.08
2023-11-26T12:19:44.999Z,1.42
2023-11-26T12:22:12.771Z,1.80
2023-11-26T12:24:40.121Z,1.50
2023-11-26T12:27:07.578Z,1.98
2023-11-26T12:29:36.769Z,1.50
2023-11-26T12:32:07.786Z,2.85
2023-11-26T12:34:38.605Z,1.13
2023-11-26T12:37:11.048Z,3.00
2023-11-26T12:39:39.889Z,3.85
2023-11-26T12:42:07.063Z,4.72
2023-11-26T12:44:34.350Z,1.58
2023-11-26T12:47:10.743Z,1.33
2023-11-26T12:49:38.839Z,2.83
2023-11-26T12:52:08.479Z,6.97
2023-11-26T12:54:38.906Z,1.50
2023-11-26T12:57:06.242Z,1.55
2023-11-26T12:59:47.476Z,4.15
2023-11-26T13:02:15.739Z,3.53
2023-11-26T13:04:42.775Z,2.70
2023-11-26T13:07:10.240Z,1.88
2023-11-26T13:09:51.295Z,2.60
2023-11-26T13:12:18.652Z,1.50
2023-11-26T13:14:46.920Z,1.67
2023-11-26T13:17:14.551Z,3.03
2023-11-26T13:19:43.562Z,3.83
2023-11-26T13:22:11.884Z,3.92
2023-11-26T13:24:38.762Z,8.98
2023-11-26T13:27:05.791Z,7.13
2023-11-26T13:29:32.788Z,5.68
2023-11-26T13:31:59.606Z,3.75
2023-11-26T13:34:26.465Z,5.22
2023-11-26T13:36:54.419Z,2.28
2023-11-26T13:39:21.924Z,2.08
2023-11-26T13:41:48.805Z,2.60
2023-11-26T13:44:15.721Z,5.18
2023-11-26T13:46:43.570Z,6.82
2023-11-26T13:49:12.875Z,6.10
2023-11-26T13:51:39.948Z,2.53
2023-11-26T13:54:06.756Z,2.83
2023-11-26T13:56:33.713Z,7.05
2023-11-26T13:59:00.506Z,32.08
2023-11-26T14:01:27.452Z,51.45
2023-11-26T14:03:57.887Z,23.88
2023-11-26T14:06:27.676Z,6.18
2023-11-26T14:08:54.530Z,5.18
2023-11-26T14:11:21.480Z,8.85
2023-11-26T14:13:48.298Z,6.85
2023-11-26T14:16:18.019Z,5.07
2023-11-26T14:18:45.314Z,3.17
2023-11-26T14:21:13.356Z,2.70
2023-11-26T14:23:40.357Z,3.40
2023-11-26T14:26:07.770Z,3.75
2023-11-26T14:28:34.619Z,3.50
2023-11-26T14:31:02.310Z,2.22
2023-11-26T14:33:29.285Z,2.63
2023-11-26T14:35:56.130Z,2.65
2023-11-26T14:38:22.845Z,2.03
2023-11-26T14:40:49.717Z,2.92
2023-11-26T14:43:16.635Z,3.83
2023-11-26T14:45:44.827Z,6.05
2023-11-26T14:48:11.832Z,5.43
2023-11-26T14:50:38.605Z,3.15
2023-11-26T14:53:05.765Z,3.42
2023-11-26T14:55:32.491Z,3.05
2023-11-26T14:57:59.353Z,1.75
2023-11-26T15:00:26.366Z,3.63
2023-11-26T15:02:53.141Z,1.83
2023-11-26T15:05:20.059Z,3.67
2023-11-26T15:07:46.932Z,3.00
2023-11-26T15:10:14.552Z,6.40
2023-11-26T15:12:42.020Z,3.50
2023-11-26T15:15:10.375Z,4.03
2023-11-26T15:17:38.621Z,4.55
2023-11-26T15:20:07.909Z,8.70
2023-11-26T15:22:34.672Z,12.23
2023-11-26T15:25:05.819Z,20.63
2023-11-26T15:27:32.761Z,16.95
2023-11-26T15:29:59.768Z,16.58
2023-11-26T15:32:29.439Z,16.15
2023-11-26T15:34:56.943Z,25.83
2023-11-26T15:37:27.017Z,13.45
2023-11-26T15:39:54.118Z,8.63
2023-11-26T15:42:20.939Z,9.48
2023-11-26T15:44:47.715Z,3.47
2023-11-26T15:47:14.687Z,8.93
2023-11-26T15:49:41.421Z,5.20
2023-11-26T15:52:08.211Z,4.10
2023-11-26T15:54:35.366Z,3.05
2023-11-26T15:57:02.184Z,6.10
2023-11-26T15:59:28.999Z,5.05
2023-11-26T16:01:56.276Z,5.07
2023-11-26T16:04:23.114Z,11.93
2023-11-26T16:06:50.065Z,10.30
2023-11-26T16:09:17.053Z,5.45
2023-11-26T16:11:44.071Z,3.03
2023-11-26T16:14:10.943Z,4.57
2023-11-26T16:16:37.654Z,4.57
2023-11-26T16:19:04.709Z,4.65
2023-11-26T16:21:32.392Z,8.35
2023-11-26T16:23:59.696Z,5.70
2023-11-26T16:26:26.618Z,4.47
2023-11-26T16:28:53.667Z,4.00
2023-11-26T16:31:21.940Z,6.88
2023-11-26T16:33:54.986Z,6.10
2023-11-26T16:36:23.888Z,5.75
2023-11-26T16:38:53.935Z,8.02
2023-11-26T16:41:20.978Z,3.95
2023-11-26T16:43:49.017Z,8.02
2023-11-26T16:46:17.552Z,4.28
2023-11-26T16:48:45.746Z,5.68
2023-11-26T16:51:13.597Z,3.13
2023-11-26T16:53:40.422Z,6.25
2023-11-26T16:56:08.788Z,5.43
2023-11-26T16:58:36.102Z,4.32
2023-11-26T17:01:04.222Z,6.38
2023-11-26T17:03:35.186Z,6.57
2023-11-26T17:06:03.866Z,6.75
2023-11-26T17:08:30.878Z,5.30
2023-11-26T17:10:58.736Z,6.30
2023-11-26T17:13:26.937Z,6.35
2023-11-26T17:15:54.500Z,18.27
2023-11-26T17:18:22.015Z,14.23
2023-11-26T17:20:49.246Z,10.07
2023-11-26T17:23:17.482Z,20.45
2023-11-26T17:25:47.616Z,18.33
2023-11-26T17:28:15.933Z,11.05
2023-11-26T17:30:43.617Z,7.75
2023-11-26T17:33:12.312Z,5.47
2023-11-26T17:35:39.174Z,5.15
2023-11-26T17:38:08.487Z,8.18
2023-11-26T17:40:36.057Z,9.00
2023-11-26T17:43:03.492Z,18.35
2023-11-26T17:45:30.624Z,28.35
2023-11-26T17:47:57.951Z,36.22
2023-11-26T17:50:24.968Z,26.27
2023-11-26T17:52:56.740Z,38.47
2023-11-26T17:55:32.536Z,70.90
2023-11-26T17:58:00.359Z,70.28
2023-11-26T18:00:27.390Z,43.70
2023-11-26T18:02:54.654Z,11.65
2023-11-26T18:05:21.514Z,19.13
2023-11-26T18:07:48.781Z,10.90
2023-11-26T18:10:15.858Z,9.48
2023-11-26T18:12:45.025Z,7.80
2023-11-26T18:15:17.715Z,6.35
2023-11-26T18:17:47.403Z,6.30
2023-11-26T18:20:18.477Z,5.45
2023-11-26T18:22:46.566Z,11.13
2023-11-26T18:25:13.961Z,13.45
2023-11-26T18:27:41.974Z,14.73
2023-11-26T18:30:10.569Z,13.68
2023-11-26T18:32:38.087Z,16.42
2023-11-26T18:35:05.279Z,24.85
2023-11-26T18:37:33.410Z,20.30
2023-11-26T18:40:00.568Z,14.90
2023-11-26T18:42:27.524Z,15.73
2023-11-26T18:44:54.419Z,18.20
2023-11-26T18:47:21.738Z,23.85
2023-11-26T18:49:48.848Z,43.05
2023-11-26T18:52:18.177Z,41.53
2023-11-26T18:54:45.764Z,36.90
2023-11-26T18:57:12.708Z,29.08
2023-11-26T18:59:40.782Z,31.95
2023-11-26T19:02:10.618Z,28.92
2023-11-26T19:04:39.035Z,20.00
2023-11-26T19:07:06.337Z,8.80
2023-11-26T19:09:33.135Z,11.15
2023-11-26T19:11:59.970Z,8.95
2023-11-26T19:14:26.784Z,7.78
2023-11-26T19:16:53.696Z,9.90
2023-11-26T19:19:21.089Z,7.35
2023-11-26T19:21:48.681Z,7.15
2023-11-26T19:24:15.497Z,13.75
2023-11-26T19:26:42.341Z,7.55
2023-11-26T19:29:09.122Z,9.23
2023-11-26T19:31:35.958Z,8.90
2023-11-26T19:34:03.007Z,7.78
2023-11-26T19:36:29.796Z,5.68
2023-11-26T19:38:56.609Z,7.57
2023-11-26T19:41:23.331Z,8.88
2023-11-26T19:43:50.637Z,7.82
2023-11-26T19:46:18.358Z,5.07
2023-11-26T19:48:50.750Z,5.53
2023-11-26T19:51:21.823Z,5.55
2023-11-26T19:56:16.471Z,6.30
2023-11-26T19:58:44.262Z,6.45
2023-11-26T20:01:12.387Z,5.57
2023-11-26T20:03:40.036Z,11.00
2023-11-26T20:06:07.209Z,7.70
2023-11-26T20:08:34.254Z,11.38
2023-11-26T20:11:01.831Z,12.05
2023-11-26T20:13:29.536Z,11.10
2023-11-26T20:15:57.240Z,8.40
2023-11-26T20:18:24.631Z,6.75
2023-11-26T20:20:52.094Z,6.20
2023-11-26T20:23:18.930Z,5.95
2023-11-26T20:25:45.769Z,4.70
2023-11-26T20:28:12.646Z,6.97
2023-11-26T20:30:46.662Z,4.90
2023-11-26T20:33:16.095Z,6.78
2023-11-26T20:35:43.102Z,8.65
2023-11-26T20:38:09.928Z,10.65
2023-11-26T20:40:36.707Z,9.65
2023-11-26T20:43:03.846Z,7.47
2023-11-26T20:45:30.726Z,5.95
2023-11-26T20:47:57.570Z,7.15
2023-11-26T20:50:24.682Z,6.63
2023-11-26T20:52:51.598Z,6.95
2023-11-26T20:55:18.532Z,8.93
2023-11-26T20:57:45.833Z,7.07
2023-11-26T21:00:16.079Z,6.88
2023-11-26T21:02:43.141Z,6.20
2023-11-26T21:05:10.359Z,5.72
2023-11-26T21:07:38.363Z,3.80
2023-11-26T21:10:07.697Z,5.28
2023-11-26T21:12:36.097Z,5.93
2023-11-26T21:15:06.964Z,5.78
2023-11-26T21:17:39.501Z,6.13
2023-11-26T21:20:10.215Z,5.25
2023-11-26T21:22:37.348Z,5.30
2023-11-26T21:25:05.109Z,5.00
2023-11-26T21:27:32.206Z,4.95
2023-11-26T21:29:59.267Z,5.15
2023-11-26T21:32:28.922Z,4.43
2023-11-26T21:34:55.786Z,6.25
2023-11-26T21:37:22.602Z,6.35
2023-11-26T21:39:49.677Z,6.28
2023-11-26T21:42:17.331Z,7.13
2023-11-26T21:44:44.186Z,17.42
2023-11-26T21:47:11.339Z,28.35
2023-11-26T21:49:38.335Z,14.80
2023-11-26T21:52:06.464Z,7.10
2023-11-26T21:54:33.612Z,5.85
2023-11-26T21:57:01.051Z,11.27
2023-11-26T21:59:27.881Z,17.33
2023-11-26T22:01:55.222Z,16.35
2023-11-26T22:04:22.208Z,10.07
2023-11-26T22:06:49.111Z,6.13
2023-11-26T22:09:15.994Z,5.15
2023-11-26T22:11:42.946Z,4.85
2023-11-26T22:14:09.983Z,5.97
2023-11-26T22:16:38.634Z,6.18
2023-11-26T22:19:06.807Z,5.38
2023-11-26T22:21:34.202Z,2.95
2023-11-26T22:24:03.430Z,6.28
2023-11-26T22:26:31.873Z,3.67
2023-11-26T22:28:58.879Z,5.38
2023-11-26T22:31:25.824Z,3.75
2023-11-26T22:33:52.730Z,5.00
2023-11-26T22:36:23.844Z,4.95
2023-11-26T22:41:22.084Z,5.18
2023-11-26T22:46:29.003Z,3.20
2023-11-26T22:49:00.434Z,4.32
2023-11-26T22:51:32.171Z,2.63
2023-11-26T22:53:59.054Z,2.17
2023-11-26T22:56:26.197Z,3.10
2023-11-26T22:58:56.320Z,2.67
2023-11-26T23:01:24.720Z,3.03
2023-11-26T23:03:52.487Z,2.35
2023-11-26T23:06:19.386Z,1.60
2023-11-26T23:08:46.159Z,3.53
2023-11-26T23:11:17.408Z,2.50
2023-11-26T23:16:11.667Z,1.73
2023-11-26T23:18:38.680Z,1.92
2023-11-26T23:21:06.874Z,1.85
2023-11-26T23:23:42.300Z,1.50
2023-11-26T23:26:16.361Z,1.98
2023-11-26T23:28:43.434Z,6.88
2023-11-26T23:31:17.790Z,3.22
2023-11-26T23:33:45.334Z,2.78
2023-11-26T23:36:13.203Z,1.65
2023-11-26T23:38:41.338Z,3.38
2023-11-26T23:41:11.696Z,2.83
2023-11-26T23:43:39.790Z,3.60
2023-11-26T23:46:07.097Z,1.70
2023-11-26T23:48:33.921Z,1.55
2023-11-26T23:51:00.653Z,2.30
2023-11-26T23:53:27.387Z,2.03
2023-11-26T23:55:54.236Z,1.27
2023-11-26T23:58:21.403Z,4.20
